Time;durP1;ratioP1;P1;durP2;ratioP2;P2;SDS_P1;SDS_P2;PMS_P1;PMS_P2;Temp;Humidity;BMP_temperature;BMP_pressure;BME280_temperature;BME280_humidity;BME280_pressure;Samples;Min_cycle;Max_cycle;Signal;HPM_P1;HPM_P2
2022/03/31 00:00:32;;;;;;;;;;;;;;;14.19;49.17;94307.34;5115360;28;1048;-51
2022/03/31 00:02:58;;;;;;;;;;;;;;;14.19;49.63;94318.09;5116497;28;1885;-51
2022/03/31 00:05:25;;;;;;;;;;;;;;;14.24;50.07;94310.22;5116480;28;1906;-51
2022/03/31 00:07:52;;;;;;;;;;;;;;;14.21;50.29;94307.97;5116682;28;1107;-51
2022/03/31 00:10:20;;;;;;;;;;;;;;;14.18;50.70;94304.84;5116696;28;995;-51
2022/03/31 00:12:46;;;;;;;;;;;;;;;14.15;50.78;94300.72;5116320;28;1044;-51
2022/03/31 00:15:12;;;;;;;;;;;;;;;14.18;50.75;94297.59;5116807;28;964;-51
2022/03/31 00:17:38;;;;;;;;;;;;;;;14.22;50.92;94292.66;5116209;28;1212;-51
2022/03/31 00:20:04;;;;;;;;;;;;;;;14.23;50.83;94299.69;5116537;28;968;-51
2022/03/31 00:22:30;;;;;;;;;;;;;;;14.19;50.95;94299.28;5116313;28;1051;-51
2022/03/31 00:24:56;;;;;;;;;;;;;;;14.14;51.27;94292.84;5116421;28;1913;-51
2022/03/31 00:27:22;;;;;;;;;;;;;;;14.10;51.79;94281.69;5116119;28;1052;-51
2022/03/31 00:29:48;;;;;;;;;;;;;;;14.04;52.16;94280.63;5116202;28;1051;-51
2022/03/31 00:32:14;;;;;;;;;;;;;;;14.09;52.09;94277.31;5116025;28;1229;-51
2022/03/31 00:34:40;;;;;;;;;;;;;;;14.15;51.33;94263.09;5115974;28;972;-51
2022/03/31 00:37:06;;;;;;;;;;;;;;;14.19;51.65;94260.78;5116284;28;1007;-51
2022/03/31 00:39:32;;;;;;;;;;;;;;;14.12;51.71;94262.66;5116157;28;924;-51
2022/03/31 00:42:06;;;;;;;;;;;;;;;14.09;51.78;94261.19;5115691;28;984;-51
2022/03/31 00:44:32;;;;;;;;;;;;;;;14.13;51.56;94253.56;5115994;28;2007;-51
2022/03/31 00:46:58;;;;;;;;;;;;;;;14.20;51.02;94255.22;5116034;28;1050;-51
2022/03/31 00:49:25;;;;;;;;;;;;;;;14.27;51.04;94257.09;5115894;28;964;-51
2022/03/31 00:51:52;;;;;;;;;;;;;;;14.22;51.20;94255.00;5126611;27;1192;-51
2022/03/31 00:54:19;;;;;;;;;;;;;;;14.16;51.19;94235.16;5136222;27;1018;-51
2022/03/31 00:56:48;;;;;;;;;;;;;;;14.16;51.16;94232.47;5136400;27;960;-51
2022/03/31 00:59:14;;;;;;;;;;;;;;;14.19;51.11;94242.81;5136274;27;1060;-51
2022/03/31 01:01:42;;;;;;;;;;;;;;;14.13;51.26;94218.59;5136332;27;1048;-51
2022/03/31 01:04:08;;;;;;;;;;;;;;;14.13;51.25;94232.88;5135668;27;1921;-50
2022/03/31 01:06:34;;;;;;;;;;;;;;;14.10;51.45;94227.09;5136164;27;1070;-51
2022/03/31 01:09:04;;;;;;;;;;;;;;;14.09;51.17;94222.75;5136039;27;984;-51
2022/03/31 01:11:31;;;;;;;;;;;;;;;14.14;51.17;94218.41;5135741;27;995;-51
2022/03/31 01:13:57;;;;;;;;;;;;;;;14.09;51.14;94220.06;5135432;27;1075;-51
2022/03/31 01:16:23;;;;;;;;;;;;;;;14.06;51.34;94210.56;5135819;27;1091;-51
2022/03/31 01:18:52;;;;;;;;;;;;;;;14.05;51.20;94208.88;5135573;27;1027;-51
2022/03/31 01:21:18;;;;;;;;;;;;;;;14.04;51.35;94216.13;5136018;27;985;-51
2022/03/31 01:23:45;;;;;;;;;;;;;;;14.04;51.17;94216.13;5135505;27;985;-51
2022/03/31 01:26:11;;;;;;;;;;;;;;;14.07;51.06;94209.50;5135873;27;999;-51
2022/03/31 01:28:41;;;;;;;;;;;;;;;14.08;51.29;94208.50;5135429;27;1048;-51
2022/03/31 01:31:08;;;;;;;;;;;;;;;14.07;51.05;94206.81;5135301;27;1966;-51
2022/03/31 01:33:34;;;;;;;;;;;;;;;14.07;50.96;94196.06;5135240;27;1081;-51
2022/03/31 01:36:01;;;;;;;;;;;;;;;14.12;50.89;94204.34;5135432;27;1016;-51
2022/03/31 01:38:27;;;;;;;;;;;;;;;14.08;50.95;94196.91;5135327;27;1015;-51
2022/03/31 01:40:53;;;;;;;;;;;;;;;14.06;50.96;94181.00;5135488;27;1578;-51
2022/03/31 01:43:21;;;;;;;;;;;;;;;14.05;50.97;94182.00;5135311;27;1039;-51
2022/03/31 01:45:49;;;;;;;;;;;;;;;14.07;50.80;94188.00;5135394;27;1909;-51
2022/03/31 01:48:16;;;;;;;;;;;;;;;14.09;50.62;94180.56;5135315;27;928;-51
2022/03/31 01:50:42;;;;;;;;;;;;;;;14.09;50.60;94190.50;5134397;27;1164;-51
2022/03/31 01:53:09;;;;;;;;;;;;;;;14.10;50.59;94192.16;5114441;28;1099;-51
2022/03/31 01:55:35;;;;;;;;;;;;;;;14.06;50.69;94183.69;5114667;28;970;-51
2022/03/31 01:58:02;;;;;;;;;;;;;;;14.09;50.46;94188.63;5114745;27;970;-51
2022/03/31 02:00:28;;;;;;;;;;;;;;;14.09;50.35;94182.44;5114386;28;977;-51
2022/03/31 02:02:54;;;;;;;;;;;;;;;14.06;50.54;94187.19;5114650;28;971;-51
2022/03/31 02:05:21;;;;;;;;;;;;;;;14.05;50.44;94177.47;5114130;28;1934;-51
2022/03/31 02:07:47;;;;;;;;;;;;;;;14.06;50.43;94157.63;5114140;28;1063;-51
2022/03/31 02:10:13;;;;;;;;;;;;;;;14.05;50.51;94161.31;5112883;28;1079;-51
2022/03/31 02:12:40;;;;;;;;;;;;;;;14.12;50.26;94158.66;5114013;28;1043;-51
2022/03/31 02:15:07;;;;;;;;;;;;;;;14.08;50.25;94157.41;5114312;28;977;-51
2022/03/31 02:17:33;;;;;;;;;;;;;;;14.08;50.24;94165.50;5114139;28;1020;-51
2022/03/31 02:19:59;;;;;;;;;;;;;;;14.05;50.39;94155.97;5113752;28;1094;-51
2022/03/31 02:22:25;;;;;;;;;;;;;;;14.05;50.35;94163.19;5113263;28;1024;-51
2022/03/31 02:24:51;;;;;;;;;;;;;;;14.07;50.24;94161.13;5114034;28;1996;-51
2022/03/31 02:27:17;;;;;;;;;;;;;;;14.08;50.32;94160.09;5114008;28;1087;-51
2022/03/31 02:29:43;;;;;;;;;;;;;;;14.09;50.33;94164.44;5113950;28;1070;-51
2022/03/31 02:32:09;;;;;;;;;;;;;;;14.05;50.51;94164.03;5113855;28;1087;-51
2022/03/31 02:34:35;;;;;;;;;;;;;;;14.08;50.43;94148.53;5113910;28;1028;-51
2022/03/31 02:37:02;;;;;;;;;;;;;;;14.10;50.36;94135.72;5113797;28;1044;-51
2022/03/31 02:39:31;;;;;;;;;;;;;;;14.09;50.42;94131.38;5114057;28;968;-51
2022/03/31 02:41:57;;;;;;;;;;;;;;;14.09;50.47;94142.94;5113802;28;1052;-51
2022/03/31 02:44:24;;;;;;;;;;;;;;;14.09;50.50;94150.19;5113972;28;1910;-51
2022/03/31 02:46:51;;;;;;;;;;;;;;;14.07;50.39;94145.00;5113862;28;1028;-51
2022/03/31 02:49:18;;;;;;;;;;;;;;;14.06;50.54;94143.38;5113711;28;1092;-51
2022/03/31 02:51:44;;;;;;;;;;;;;;;14.06;50.61;94135.31;5123242;28;1223;-51
2022/03/31 02:56:54;;;;;;;;;;;;;;;14.00;50.75;94133.41;5134194;28;980;-50
2022/03/31 02:59:21;;;;;;;;;;;;;;;14.02;50.73;94155.56;5134125;28;1008;-51
2022/03/31 03:01:47;;;;;;;;;;;;;;;14.06;50.57;94154.94;5134007;28;1040;-51
2022/03/31 03:04:13;;;;;;;;;;;;;;;14.11;50.52;94148.09;5133948;28;1909;-50
2022/03/31 03:06:39;;;;;;;;;;;;;;;14.10;50.58;94159.91;5133893;28;1064;-51
2022/03/31 03:09:06;;;;;;;;;;;;;;;14.12;50.57;94155.97;5134267;27;948;-50
2022/03/31 03:11:32;;;;;;;;;;;;;;;14.15;50.48;94150.19;5133957;27;1966;-51
2022/03/31 03:13:58;;;;;;;;;;;;;;;14.14;50.37;94139.63;5134105;27;972;-51
2022/03/31 03:16:25;;;;;;;;;;;;;;;14.16;50.64;94141.06;5133888;27;1879;-51
2022/03/31 03:18:52;;;;;;;;;;;;;;;14.18;50.50;94139.00;5132638;28;969;-51
2022/03/31 03:21:19;;;;;;;;;;;;;;;14.10;50.96;94128.47;5133835;27;1068;-51
2022/03/31 03:23:45;;;;;;;;;;;;;;;14.12;51.02;94134.47;5134133;27;1063;-51
2022/03/31 03:26:12;;;;;;;;;;;;;;;14.13;50.74;94127.22;5133746;27;1977;-51
2022/03/31 03:28:38;;;;;;;;;;;;;;;14.15;50.90;94128.69;5134263;27;1111;-51
2022/03/31 03:31:05;;;;;;;;;;;;;;;14.21;50.76;94127.03;5133822;27;1095;-51
2022/03/31 03:33:32;;;;;;;;;;;;;;;14.18;50.88;94120.19;5134481;27;1071;-51
2022/03/31 03:35:58;;;;;;;;;;;;;;;14.17;50.82;94120.38;5137558;27;1082;-50
2022/03/31 03:38:24;;;;;;;;;;;;;;;14.21;50.86;94119.78;5137926;27;969;-50
2022/03/31 03:40:50;;;;;;;;;;;;;;;14.23;50.74;94119.59;5137764;27;961;-50
2022/03/31 03:43:16;;;;;;;;;;;;;;;14.28;50.58;94127.81;5137438;27;1091;-51
2022/03/31 03:45:43;;;;;;;;;;;;;;;14.28;50.55;94143.94;5137410;27;1905;-51
2022/03/31 03:48:11;;;;;;;;;;;;;;;14.28;50.66;94143.94;5137640;27;999;-51
2022/03/31 03:50:38;;;;;;;;;;;;;;;14.25;50.65;94149.75;5137278;27;1219;-51
2022/03/31 03:53:07;;;;;;;;;;;;;;;14.24;50.59;94150.78;5117113;28;949;-51
2022/03/31 03:55:36;;;;;;;;;;;;;;;14.28;50.49;94156.56;5117013;28;1104;-51
2022/03/31 03:58:03;;;;;;;;;;;;;;;14.27;50.53;94163.81;5117019;28;1073;-51
2022/03/31 04:00:29;;;;;;;;;;;;;;;14.30;50.47;94165.25;5116779;28;987;-51
2022/03/31 04:02:55;;;;;;;;;;;;;;;14.27;50.59;94160.31;5116582;28;1035;-51
2022/03/31 04:05:21;;;;;;;;;;;;;;;14.27;50.62;94173.75;5116553;28;1906;-51
2022/03/31 04:07:48;;;;;;;;;;;;;;;14.28;50.61;94168.16;5116558;28;988;-51
2022/03/31 04:10:14;;;;;;;;;;;;;;;14.30;50.39;94160.69;5116608;28;1048;-51
2022/03/31 04:12:40;;;;;;;;;;;;;;;14.26;50.69;94154.09;5116234;28;1036;-51
2022/03/31 04:15:08;;;;;;;;;;;;;;;14.29;50.62;94148.31;5116409;28;1047;-51
2022/03/31 04:17:34;;;;;;;;;;;;;;;14.23;50.67;94149.97;5116132;28;1202;-51
2022/03/31 04:20:00;;;;;;;;;;;;;;;14.21;50.71;94143.16;5116299;28;1031;-51
2022/03/31 04:22:26;;;;;;;;;;;;;;;14.19;50.86;94137.13;5116355;28;1030;-51
2022/03/31 04:24:52;;;;;;;;;;;;;;;14.20;50.83;94134.25;5116494;28;1991;-51
2022/03/31 04:27:18;;;;;;;;;;;;;;;14.18;50.88;94133.63;5115188;28;1011;-51
2022/03/31 04:29:44;;;;;;;;;;;;;;;14.20;50.87;94136.13;5116129;28;1032;-51
2022/03/31 04:32:10;;;;;;;;;;;;;;;14.26;50.84;94140.66;5115693;28;1229;-51
2022/03/31 04:34:36;;;;;;;;;;;;;;;14.22;51.38;94142.94;5116098;28;1028;-51
2022/03/31 04:37:03;;;;;;;;;;;;;;;14.19;51.86;94140.66;5116085;28;1234;-50
2022/03/31 04:39:29;;;;;;;;;;;;;;;14.17;52.05;94150.81;5116110;28;1575;-50
2022/03/31 04:41:55;;;;;;;;;;;;;;;14.15;52.24;94162.78;5115632;28;1043;-50
2022/03/31 04:44:21;;;;;;;;;;;;;;;14.16;52.22;94157.22;5115849;28;1984;-50
2022/03/31 04:46:47;;;;;;;;;;;;;;;14.12;52.64;94161.34;5114986;28;952;-51
2022/03/31 04:49:13;;;;;;;;;;;;;;;14.06;53.15;94167.56;5116103;28;1165;-51
2022/03/31 04:51:39;;;;;;;;;;;;;;;14.05;53.64;94174.75;5124889;27;1247;-50
2022/03/31 04:54:05;;;;;;;;;;;;;;;13.95;54.47;94182.41;5136424;27;973;-50
2022/03/31 04:56:31;;;;;;;;;;;;;;;13.92;54.93;94190.06;5136196;27;1062;-50
2022/03/31 04:58:58;;;;;;;;;;;;;;;13.84;55.40;94193.78;5136100;27;1040;-51
2022/03/31 05:01:24;;;;;;;;;;;;;;;13.81;55.66;94192.34;5136266;27;1080;-51
2022/03/31 05:03:51;;;;;;;;;;;;;;;13.72;57.34;94192.75;5136095;27;988;-51
2022/03/31 05:06:17;;;;;;;;;;;;;;;13.70;56.41;94192.09;5136372;27;1982;-51
2022/03/31 05:08:43;;;;;;;;;;;;;;;13.63;57.88;94186.72;5135793;27;1013;-51
2022/03/31 05:11:09;;;;;;;;;;;;;;;13.60;58.49;94195.16;5136077;27;1212;-51
2022/03/31 05:13:35;;;;;;;;;;;;;;;13.59;58.22;94194.34;5135925;27;1036;-50
2022/03/31 05:16:02;;;;;;;;;;;;;;;13.54;58.74;94191.44;5135923;27;1034;-50
2022/03/31 05:18:28;;;;;;;;;;;;;;;13.52;59.27;94181.94;5135695;27;1846;-50
2022/03/31 05:20:54;;;;;;;;;;;;;;;13.39;60.10;94171.97;5135942;27;1044;-50
2022/03/31 05:23:20;;;;;;;;;;;;;;;13.38;59.94;94162.28;5135929;27;967;-49
2022/03/31 05:25:47;;;;;;;;;;;;;;;13.31;60.99;94156.88;5135910;27;2017;-50
2022/03/31 05:28:13;;;;;;;;;;;;;;;13.37;60.31;94153.38;5135576;27;953;-50
2022/03/31 05:30:39;;;;;;;;;;;;;;;13.43;60.89;94162.50;5135384;27;1343;-51
2022/03/31 05:33:07;;;;;;;;;;;;;;;13.46;60.79;94152.19;5135513;27;1111;-50
2022/03/31 05:35:33;;;;;;;;;;;;;;;13.42;60.62;94145.56;5135791;27;956;-50
2022/03/31 05:37:59;;;;;;;;;;;;;;;13.31;61.17;94154.19;5135353;27;1044;-51
2022/03/31 05:40:25;;;;;;;;;;;;;;;13.36;61.01;94156.28;5135444;27;1083;-50
2022/03/31 05:42:51;;;;;;;;;;;;;;;13.37;62.25;94158.75;5135029;27;945;-50
2022/03/31 05:45:17;;;;;;;;;;;;;;;13.35;62.02;94150.06;5135491;27;1918;-50
2022/03/31 05:47:44;;;;;;;;;;;;;;;13.32;62.25;94155.88;5135076;27;1191;-51
2022/03/31 05:50:11;;;;;;;;;;;;;;;13.37;62.03;94152.56;5135246;27;1177;-51
2022/03/31 05:52:42;;;;;;;;;;;;;;;13.41;61.76;94162.72;5117590;27;1156;-51
2022/03/31 05:55:09;;;;;;;;;;;;;;;13.46;61.48;94157.53;5114816;28;965;-51
2022/03/31 05:57:35;;;;;;;;;;;;;;;13.54;61.84;94153.03;5114655;28;979;-50
2022/03/31 06:00:03;;;;;;;;;;;;;;;13.59;61.41;94161.31;5114919;28;1024;-51
2022/03/31 06:02:29;;;;;;;;;;;;;;;13.68;60.74;94154.72;5114260;28;1071;-50
2022/03/31 06:04:55;;;;;;;;;;;;;;;13.71;61.08;94161.53;5114509;28;1921;-50
2022/03/31 06:07:21;;;;;;;;;;;;;;;13.78;60.68;94157.81;5114463;28;1110;-51
2022/03/31 06:09:47;;;;;;;;;;;;;;;13.82;60.40;94166.28;5114200;28;995;-50
2022/03/31 06:12:14;;;;;;;;;;;;;;;13.82;60.60;94169.78;5114388;28;1064;-50
2022/03/31 06:14:40;;;;;;;;;;;;;;;13.79;60.44;94169.38;5114015;28;1003;-51
2022/03/31 06:17:06;;;;;;;;;;;;;;;13.87;60.22;94166.50;5114263;28;1036;-51
2022/03/31 06:19:32;;;;;;;;;;;;;;;13.85;60.37;94168.56;5114010;28;1037;-51
2022/03/31 06:21:58;;;;;;;;;;;;;;;13.85;60.24;94158.66;5114203;28;980;-52
2022/03/31 06:24:24;;;;;;;;;;;;;;;13.90;60.19;94146.44;5114431;28;1909;-51
2022/03/31 06:26:50;;;;;;;;;;;;;;;13.96;60.29;94162.59;5114293;28;1094;-51
2022/03/31 06:29:16;;;;;;;;;;;;;;;14.03;59.96;94171.47;5114024;28;973;-51
2022/03/31 06:35:11;;;;;;;;;;;;;;;14.24;59.44;94172.28;4728025;28;2231;-51
2022/03/31 06:37:39;;;;;;;;;;;;;;;14.18;59.57;94160.50;5113832;28;1052;-51
2022/03/31 06:40:05;;;;;;;;;;;;;;;14.23;59.48;94157.22;5113896;28;1016;-50
2022/03/31 06:42:31;;;;;;;;;;;;;;;14.28;59.25;94154.72;5113785;28;1059;-50
2022/03/31 06:44:57;;;;;;;;;;;;;;;14.31;59.05;94150.78;5113672;28;1914;-50
2022/03/31 06:47:23;;;;;;;;;;;;;;;14.35;59.17;94154.72;5113746;28;1068;-51
2022/03/31 06:49:49;;;;;;;;;;;;;;;14.37;59.00;94158.03;5113726;28;964;-51
2022/03/31 06:52:15;;;;;;;;;;;;;;;14.38;59.22;94152.44;5127859;28;1288;-51
2022/03/31 06:54:41;;;;;;;;;;;;;;;14.51;58.56;94148.06;5134295;27;996;-52
2022/03/31 06:57:07;;;;;;;;;;;;;;;14.72;57.76;94155.09;5134083;28;1107;-50
2022/03/31 06:59:33;;;;;;;;;;;;;;;14.82;57.44;94160.88;5134198;28;1039;-51
2022/03/31 07:02:00;;;;;;;;;;;;;;;14.90;56.79;94176.78;5134092;27;985;-52
2022/03/31 07:04:26;;;;;;;;;;;;;;;15.00;56.44;94173.63;5133983;27;1902;-51
2022/03/31 07:06:52;;;;;;;;;;;;;;;15.05;56.24;94179.22;5134053;27;1020;-51
2022/03/31 07:09:18;;;;;;;;;;;;;;;14.96;56.24;94170.53;5136307;27;985;-50
2022/03/31 07:11:43;;;;;;;;;;;;;;;15.06;55.94;94183.53;5138635;27;968;-51
2022/03/31 07:14:10;;;;;;;;;;;;;;;15.19;55.82;94179.97;5138437;27;980;-51
2022/03/31 07:16:36;;;;;;;;;;;;;;;15.38;55.22;94187.13;5138257;27;949;-50
2022/03/31 07:19:03;;;;;;;;;;;;;;;15.41;54.77;94189.41;5137939;27;1075;-50
2022/03/31 07:21:29;;;;;;;;;;;;;;;15.44;54.49;94190.84;5138069;27;1028;-50
2022/03/31 07:23:56;;;;;;;;;;;;;;;15.68;54.15;94191.97;5137883;27;1087;-51
2022/03/31 07:26:24;;;;;;;;;;;;;;;15.50;54.29;94192.69;5137986;27;1905;-50
2022/03/31 07:28:51;;;;;;;;;;;;;;;15.34;55.11;94167.06;5138123;27;984;-51
2022/03/31 07:31:17;;;;;;;;;;;;;;;15.27;54.60;94166.31;5136985;27;1035;-51
2022/03/31 07:33:43;;;;;;;;;;;;;;;15.27;54.82;94157.38;5137990;27;1320;-51
2022/03/31 07:36:10;;;;;;;;;;;;;;;15.22;54.75;94139.19;5137631;27;1134;-51
2022/03/31 07:38:36;;;;;;;;;;;;;;;15.27;54.59;94135.81;5138138;27;968;-51
2022/03/31 07:41:02;;;;;;;;;;;;;;;15.41;54.05;94149.00;5137731;27;973;-51
2022/03/31 07:43:28;;;;;;;;;;;;;;;15.34;54.37;94163.56;5137925;27;1040;-50
2022/03/31 07:45:54;;;;;;;;;;;;;;;15.26;54.03;94156.56;5137155;27;2004;-51
2022/03/31 07:48:21;;;;;;;;;;;;;;;15.21;54.02;94175.22;5137708;27;1044;-50
2022/03/31 07:50:47;;;;;;;;;;;;;;;15.10;54.80;94175.88;5135801;27;1204;-50
2022/03/31 07:53:13;;;;;;;;;;;;;;;15.07;55.10;94165.53;5117269;28;1036;-50
2022/03/31 07:55:39;;;;;;;;;;;;;;;15.03;55.23;94168.66;5117043;28;1040;-50
2022/03/31 07:58:05;;;;;;;;;;;;;;;14.94;54.94;94169.09;5117129;28;1101;-51
2022/03/31 08:00:31;;;;;;;;;;;;;;;14.98;54.99;94165.75;5116676;28;1027;-50
2022/03/31 08:02:58;;;;;;;;;;;;;;;15.10;54.74;94162.41;5116783;28;957;-50
2022/03/31 08:05:25;;;;;;;;;;;;;;;15.16;54.16;94153.50;5116415;28;1910;-50
2022/03/31 08:07:51;;;;;;;;;;;;;;;15.15;54.09;94168.81;5116556;28;1016;-51
2022/03/31 08:10:18;;;;;;;;;;;;;;;15.28;53.73;94167.13;5116733;28;1016;-50
2022/03/31 08:12:45;;;;;;;;;;;;;;;15.36;53.60;94156.09;5116421;28;1119;-50
2022/03/31 08:15:12;;;;;;;;;;;;;;;15.49;53.17;94157.91;5116219;28;1154;-51
2022/03/31 08:17:38;;;;;;;;;;;;;;;15.70;52.89;94151.34;5117163;28;1012;-50
2022/03/31 08:20:06;;;;;;;;;;;;;;;15.82;52.14;94144.22;5115305;27;953;-50
2022/03/31 08:22:32;;;;;;;;;;;;;;;15.87;52.33;94159.75;5116370;28;1083;-50
2022/03/31 08:24:58;;;;;;;;;;;;;;;15.75;51.66;94154.25;5116015;28;1994;-50
2022/03/31 08:27:24;;;;;;;;;;;;;;;15.69;52.09;94145.13;5116372;28;1856;-50
2022/03/31 08:29:50;;;;;;;;;;;;;;;15.67;52.23;94170.63;5115998;28;1043;-50
2022/03/31 08:32:16;;;;;;;;;;;;;;;15.71;52.16;94155.72;5116704;28;1099;-50
2022/03/31 08:34:42;;;;;;;;;;;;;;;15.79;52.00;94166.25;5115949;28;1106;-50
2022/03/31 08:37:08;;;;;;;;;;;;;;;16.12;51.30;94160.59;5115959;28;1839;-50
2022/03/31 08:39:34;;;;;;;;;;;;;;;16.77;49.78;94154.03;5116079;28;1048;-50
2022/03/31 08:42:01;;;;;;;;;;;;;;;17.24;48.59;94140.81;5115609;28;1044;-50
2022/03/31 08:44:28;;;;;;;;;;;;;;;17.32;48.33;94158.59;5115964;28;1914;-50
2022/03/31 08:46:54;;;;;;;;;;;;;;;17.60;47.90;94154.50;5115749;28;970;-51
2022/03/31 08:49:21;;;;;;;;;;;;;;;17.44;47.87;94159.50;5115721;28;1012;-51
2022/03/31 08:51:47;;;;;;;;;;;;;;;17.74;47.34;94137.88;5125980;27;1164;-50
2022/03/31 08:54:13;;;;;;;;;;;;;;;17.60;47.38;94149.91;5136583;27;1051;-51
2022/03/31 08:56:39;;;;;;;;;;;;;;;17.25;47.85;94150.59;5136438;27;972;-51
2022/03/31 08:59:07;;;;;;;;;;;;;;;17.16;48.24;94133.84;5136121;27;1005;-50
2022/03/31 09:01:34;;;;;;;;;;;;;;;17.25;47.93;94126.28;5136154;27;977;-50
2022/03/31 09:04:00;;;;;;;;;;;;;;;17.31;48.03;94119.94;5136402;27;1036;-50
2022/03/31 09:06:28;;;;;;;;;;;;;;;17.34;47.63;94114.09;5136248;27;1965;-50
2022/03/31 09:08:58;;;;;;;;;;;;;;;17.61;47.28;94113.75;5136272;27;1016;-50
2022/03/31 09:11:28;;;;;;;;;;;;;;;17.89;47.06;94113.16;5136022;27;953;-49
2022/03/31 09:13:56;;;;;;;;;;;;;;;18.01;46.53;94102.34;5135684;27;1032;-51
2022/03/31 09:16:29;;;;;;;;;;;;;;;17.85;46.82;94079.53;5135842;27;1036;-51
2022/03/31 09:19:03;;;;;;;;;;;;;;;17.78;46.88;94104.97;5136137;27;1040;-51
2022/03/31 09:21:31;;;;;;;;;;;;;;;17.86;47.34;94093.84;5135713;27;1128;-52
2022/03/31 09:23:57;;;;;;;;;;;;;;;17.82;47.26;94109.69;5135860;27;973;-51
2022/03/31 09:26:27;;;;;;;;;;;;;;;18.08;46.68;94089.53;5135500;27;1937;-51
2022/03/31 09:28:53;;;;;;;;;;;;;;;18.03;46.15;94096.72;5135563;27;1011;-50
2022/03/31 09:31:24;;;;;;;;;;;;;;;18.12;46.45;94093.44;5135114;27;1027;-50
2022/03/31 09:33:54;;;;;;;;;;;;;;;17.80;46.77;94086.66;5135579;27;1321;-51
2022/03/31 09:36:21;;;;;;;;;;;;;;;17.66;47.43;94105.78;5135564;27;972;-51
2022/03/31 09:38:53;;;;;;;;;;;;;;;17.78;46.98;94099.56;5135322;27;1114;-50
2022/03/31 09:41:20;;;;;;;;;;;;;;;17.98;46.61;94100.09;5135568;27;1036;-50
2022/03/31 09:43:47;;;;;;;;;;;;;;;18.10;46.53;94117.19;5134079;27;1056;-50
2022/03/31 09:46:21;;;;;;;;;;;;;;;17.95;46.54;94111.41;5135140;27;1902;-50
2022/03/31 09:48:48;;;;;;;;;;;;;;;17.69;47.14;94118.00;5135392;27;969;-50
2022/03/31 09:51:14;;;;;;;;;;;;;;;17.71;47.37;94111.28;5129687;27;1183;-50
2022/03/31 09:53:41;;;;;;;;;;;;;;;17.54;47.51;94105.72;5114736;28;1060;-50
2022/03/31 09:56:07;;;;;;;;;;;;;;;17.68;47.55;94087.44;5114233;28;1980;-50
2022/03/31 09:58:37;;;;;;;;;;;;;;;17.85;46.81;94086.78;5114754;28;940;-50
2022/03/31 10:01:04;;;;;;;;;;;;;;;17.92;46.78;94088.31;5114608;28;1017;-50
2022/03/31 10:03:30;;;;;;;;;;;;;;;18.06;46.66;94064.63;5114263;28;1092;-49
2022/03/31 10:05:57;;;;;;;;;;;;;;;18.42;46.15;94061.91;5114107;28;1988;-49
2022/03/31 10:08:23;;;;;;;;;;;;;;;18.61;45.43;94062.59;5114484;28;1028;-49
2022/03/31 10:10:49;;;;;;;;;;;;;;;19.21;44.15;94053.28;5114231;28;988;-49
2022/03/31 10:13:26;;;;;;;;;;;;;;;19.27;44.02;94055.03;5114007;28;1055;-49
2022/03/31 10:15:58;;;;;;;;;;;;;;;19.20;44.25;94038.09;5114305;28;1019;-49
2022/03/31 10:18:24;;;;;;;;;;;;;;;18.95;44.34;94051.97;5113978;28;1032;-48
2022/03/31 10:20:58;;;;;;;;;;;;;;;18.70;44.70;94044.91;5114163;28;1027;-48
2022/03/31 10:26:20;;;;;;;;;;;;;;;18.45;45.48;94035.19;5114181;28;1905;-49
2022/03/31 10:28:56;;;;;;;;;;;;;;;18.54;45.54;94041.88;5113842;28;964;-49
2022/03/31 10:31:32;;;;;;;;;;;;;;;18.80;45.10;94053.31;5114128;28;1018;-49
2022/03/31 10:33:58;;;;;;;;;;;;;;;18.94;44.89;94040.31;5113748;28;1103;-49
2022/03/31 10:36:34;;;;;;;;;;;;;;;18.96;44.73;94031.94;5114169;28;1035;-49
2022/03/31 10:39:02;;;;;;;;;;;;;;;18.75;44.81;94038.81;5112470;28;905;-50
2022/03/31 10:41:29;;;;;;;;;;;;;;;19.03;44.26;94038.88;5114043;28;1060;-49
2022/03/31 10:43:58;;;;;;;;;;;;;;;19.11;43.69;94034.97;5112706;28;1043;-50
2022/03/31 10:46:25;;;;;;;;;;;;;;;19.01;44.00;94029.31;5113972;28;1997;-49
2022/03/31 10:48:52;;;;;;;;;;;;;;;18.78;44.12;94039.16;5113850;28;1051;-50
2022/03/31 10:51:29;;;;;;;;;;;;;;;18.69;44.22;94016.22;5120085;28;1184;-50
2022/03/31 10:53:55;;;;;;;;;;;;;;;18.72;44.03;94021.13;5134513;27;1035;-50
2022/03/31 10:56:26;;;;;;;;;;;;;;;18.91;44.26;94025.38;5134260;27;1016;-50
2022/03/31 10:58:53;;;;;;;;;;;;;;;18.76;46.31;94024.19;5133972;27;1039;-49
2022/03/31 11:01:20;;;;;;;;;;;;;;;18.83;46.52;94033.03;5134580;27;1030;-50
2022/03/31 11:03:55;;;;;;;;;;;;;;;18.83;46.49;94038.47;5133991;27;1066;-49
2022/03/31 11:06:22;;;;;;;;;;;;;;;18.73;46.55;94047.97;5134169;27;1901;-50
2022/03/31 11:08:48;;;;;;;;;;;;;;;18.56;47.54;94055.19;5133907;27;1036;-50
2022/03/31 11:11:23;;;;;;;;;;;;;;;18.22;48.46;94059.56;5134126;27;936;-50
2022/03/31 11:13:49;;;;;;;;;;;;;;;18.13;49.54;94051.78;5133600;27;1059;-49
2022/03/31 11:16:16;;;;;;;;;;;;;;;18.13;50.00;94068.00;5134028;27;1098;-49
2022/03/31 11:18:52;;;;;;;;;;;;;;;18.08;50.19;94067.06;5134119;27;1067;-49
2022/03/31 11:21:18;;;;;;;;;;;;;;;17.84;52.24;94052.69;5134358;27;973;-49
2022/03/31 11:23:45;;;;;;;;;;;;;;;17.89;52.44;94047.41;5133858;27;972;-49
2022/03/31 11:26:11;;;;;;;;;;;;;;;17.85;52.99;94033.56;5133819;27;1905;-49
2022/03/31 11:28:37;;;;;;;;;;;;;;;17.72;52.57;94047.25;5133902;28;968;-49
2022/03/31 11:31:10;;;;;;;;;;;;;;;17.16;53.58;94020.41;5133859;28;1067;-49
2022/03/31 11:33:36;;;;;;;;;;;;;;;17.08;54.47;93998.34;5133730;27;1261;-48
2022/03/31 11:36:03;;;;;;;;;;;;;;;16.97;55.11;93989.94;5133878;28;1976;-49
2022/03/31 11:38:29;;;;;;;;;;;;;;;17.13;54.64;93988.50;5133765;27;957;-49
2022/03/31 11:40:55;;;;;;;;;;;;;;;17.01;55.08;93984.09;5132558;28;1060;-48
2022/03/31 11:43:22;;;;;;;;;;;;;;;16.98;55.13;93980.00;5133366;27;1032;-48
2022/03/31 11:45:50;;;;;;;;;;;;;;;16.99;55.26;93987.03;5133616;27;1977;-48
2022/03/31 11:48:20;;;;;;;;;;;;;;;16.97;55.05;93984.53;5133900;27;1030;-49
2022/03/31 11:50:50;;;;;;;;;;;;;;;17.08;54.85;94011.84;5132177;27;1228;-49
2022/03/31 11:53:26;;;;;;;;;;;;;;;17.28;54.76;94014.22;5113016;28;1087;-49
2022/03/31 11:55:55;;;;;;;;;;;;;;;17.21;54.32;94006.25;5115902;28;1110;-48
2022/03/31 11:58:21;;;;;;;;;;;;;;;17.20;54.26;93993.78;5116941;28;1052;-48
2022/03/31 12:00:48;;;;;;;;;;;;;;;17.16;54.34;93989.91;5117035;28;957;-48
2022/03/31 12:03:15;;;;;;;;;;;;;;;17.30;53.86;93971.59;5116630;28;1000;-49
2022/03/31 12:05:41;;;;;;;;;;;;;;;17.37;53.37;93967.75;5116683;28;1985;-50
2022/03/31 12:08:08;;;;;;;;;;;;;;;17.48;53.22;93965.31;5116832;28;933;-50
2022/03/31 12:10:34;;;;;;;;;;;;;;;17.75;52.85;93952.97;5116868;28;1102;-50
2022/03/31 12:13:01;;;;;;;;;;;;;;;18.07;51.99;93949.13;5115206;28;1007;-49
2022/03/31 12:15:31;;;;;;;;;;;;;;;18.04;52.11;93936.09;5116540;28;1099;-50
2022/03/31 12:18:03;;;;;;;;;;;;;;;17.82;52.60;93930.44;5116537;28;1099;-49
2022/03/31 12:20:29;;;;;;;;;;;;;;;17.86;52.46;93908.13;5116387;28;1042;-50
2022/03/31 12:22:56;;;;;;;;;;;;;;;17.86;52.22;93901.91;5116687;28;1157;-50
2022/03/31 12:25:32;;;;;;;;;;;;;;;17.98;51.96;93891.88;5116186;28;1905;-50
2022/03/31 12:28:01;;;;;;;;;;;;;;;18.05;51.76;93898.00;5116171;28;1214;-50
2022/03/31 12:30:37;;;;;;;;;;;;;;;18.11;51.39;93910.56;5116174;28;1027;-49
2022/03/31 12:33:03;;;;;;;;;;;;;;;18.06;51.69;93886.13;5116438;28;984;-50
2022/03/31 12:35:29;;;;;;;;;;;;;;;18.07;51.75;93886.94;5115872;28;1375;-49
2022/03/31 12:37:55;;;;;;;;;;;;;;;18.06;51.87;93894.22;5116310;28;972;-50
2022/03/31 12:40:24;;;;;;;;;;;;;;;18.12;49.86;93879.75;5116218;28;968;-49
2022/03/31 12:42:51;;;;;;;;;;;;;;;18.22;49.10;93881.03;5115712;28;1172;-49
2022/03/31 12:45:18;;;;;;;;;;;;;;;18.13;48.67;93888.69;5115802;28;1897;-49
2022/03/31 12:47:45;;;;;;;;;;;;;;;17.92;49.02;93895.53;5115883;28;1014;-50
2022/03/31 12:50:15;;;;;;;;;;;;;;;17.81;49.33;93885.53;5116004;28;973;-50
2022/03/31 12:52:51;;;;;;;;;;;;;;;17.72;49.35;93872.38;5133953;27;1185;-50
2022/03/31 12:55:17;;;;;;;;;;;;;;;17.67;49.32;93882.25;5136289;27;1039;-50
2022/03/31 12:57:53;;;;;;;;;;;;;;;17.67;49.43;93879.56;5136529;27;1007;-49
2022/03/31 13:00:19;;;;;;;;;;;;;;;17.71;48.98;93870.72;5136182;27;1080;-51
2022/03/31 13:02:47;;;;;;;;;;;;;;;17.70;48.91;93879.91;5136470;27;1027;-50
2022/03/31 13:05:17;;;;;;;;;;;;;;;17.67;49.32;93868.75;5136109;27;1898;-49
2022/03/31 13:07:44;;;;;;;;;;;;;;;17.62;49.12;93882.94;5135657;27;1051;-50